Aspen - Pitkin County Airport

Airport
ICAO code: 
KASE
Summary
ICAO Region: 
NAM
Territory: 
Location: 
Aspen, Colorado,
Coordinates: 
Aerial View: 
39° 13' 11.452" N, 106° 51' 52.923" W
Airport CFIT: 
Altimeter Temperature Error Correction
Airport RE: 
Hot and High Operations
Metar
Observation
KASE 021453Z 13004KT 10SM CLR M03/M07 A3035 RMK AO2 SLP258 T10281072 57004
Station
Aspen, Aspen-Pitkin County Airport
Date/Time
2021-12-02 14:53:00
Wind direction
130°
Wind speed
04 kts
Lowest cloud amount
n/a
Temperature
-2.8°C
Dew point
-7.2°C
Humidity
71%
Weather condition
n/a

Description

Aspen–Pitkin County Airport, also known as Sardy Field, is a county-owned public-use airport located 6 km northwest of the central business district of Aspen, in Pitkin County, Colorado.

Climatology

Humid Continental climate (Köppen climate classification Dfb) - Variable weather patterns and a large seasonal temperature variance. Summers are often warm and humid with frequent thunderstorms and winters can be very cold with frequent snowfall and persistent snow cover.

Runways

Designator Length Width Surface Rops
15/33 2135 30 ASP Yes/Yes
Airport map: 
Aerial View: 

SKYbrary Partners:

Safety knowledge contributed by: